This is the latest recevied weather packets stored in our database for station/object EA1IOK-1. If no packets are shown the sender has not sent any weather packets the latest 10 day(s).
| Time | Temp. | Humidity | Pressure | Rain* | Wind** | Luminosity | Snow |
|---|---|---|---|---|---|---|---|
| 1778092969 | 15.56° C | 92% | 1010.4 hPa | - | - | - | - |
| 1778092068 | 16.11° C | 84% | 1010.4 hPa | - | - | - | - |
| 1778091163 | 17.78° C | 82% | 1010.4 hPa | - | - | - | - |
| 1778090297 | 17.78° C | 76% | 1010.3 hPa | - | - | - | - |
| 1778090262 | 17.78° C | 76% | 1010.3 hPa | - | - | - | - |
| 1778089365 | 19.44° C | 73% | 1010.2 hPa | - | - | - | - |
| 1778088460 | 20° C | 71% | 1010.3 hPa | - | - | - | - |
| 1778087560 | 20.56° C | 74% | 1010.4 hPa | - | - | - | - |
| 1778086665 | 18.89° C | 81% | 1010.4 hPa | - | - | - | - |
| 1778085758 | 17.78° C | 87% | 1010.4 hPa | - | - | - | - |
| 1778084858 | 22.78° C | 48% | 1010.3 hPa | - | - | - | - |
| 1778083962 | 24.44° C | 43% | 1010.2 hPa | - | - | - | - |
| 1778083062 | 21.11° C | 54% | 1010.4 hPa | - | - | - | - |
| 1778082158 | 23.89° C | 45% | 1010.5 hPa | - | - | - | - |
| 1778081301 | 23.33° C | 40% | 1010.7 hPa | - | - | - | - |
| 1778081255 | 23.33° C | 40% | 1010.7 hPa | - | - | - | - |
| 1778080358 | 22.78° C | 49% | 1010.8 hPa | - | - | - | - |
| 1778079454 | 23.89° C | 47% | 1011 hPa | - | - | - | - |
| 1778078557 | 22.78° C | 44% | 1011.3 hPa | - | - | - | - |
| 1778077656 | 20.56° C | 59% | 1011.6 hPa | - | - | - | - |
| 1778076752 | 22.22° C | 55% | 1011.7 hPa | - | - | - | - |
| 1778075854 | 23.33° C | 53% | 1011.9 hPa | - | - | - | - |
| 1778074959 | 23.89° C | 59% | 1012.1 hPa | - | - | - | - |
| 1778074049 | 18.89° C | 76% | 1012.3 hPa | - | - | - | - |
| 1778073149 | 19.44° C | 72% | 1012.4 hPa | - | - | - | - |
* Rain since midnight (hover to see other rain measurements)
** Current wind speed in m/s (hover to see current wind gust speed)